createdAt,value
2018-10-21T00:00:22.953Z,84.09
2018-10-21T00:02:51.973Z,84.12
2018-10-21T00:05:20.934Z,85.41
2018-10-21T00:07:49.893Z,85.00
2018-10-21T00:10:19.044Z,85.05
2018-10-21T00:12:48.030Z,85.00
2018-10-21T00:15:17.305Z,85.31
2018-10-21T00:17:46.245Z,85.25
2018-10-21T00:20:15.184Z,85.22
2018-10-21T00:22:44.281Z,84.50
2018-10-21T00:25:13.242Z,84.78
2018-10-21T00:27:42.337Z,85.83
2018-10-21T00:30:11.335Z,85.20
2018-10-21T00:32:45.629Z,85.83
2018-10-21T00:35:14.611Z,85.55
2018-10-21T00:37:43.762Z,86.50
2018-10-21T00:40:12.786Z,86.95
2018-10-21T00:42:41.843Z,86.81
2018-10-21T00:45:11.592Z,87.59
2018-10-21T00:47:40.920Z,86.94
2018-10-21T00:50:11.005Z,86.42
2018-10-21T00:52:40.295Z,86.49
2018-10-21T00:55:10.035Z,85.77
2018-10-21T00:57:39.283Z,87.21
2018-10-21T01:03:02.204Z,87.52
2018-10-21T01:05:31.109Z,88.34
2018-10-21T01:08:00.193Z,87.65
2018-10-21T01:10:29.105Z,87.97
2018-10-21T01:12:57.997Z,88.37
2018-10-21T01:15:26.979Z,88.01
2018-10-21T01:17:55.933Z,87.89
2018-10-21T01:20:24.883Z,87.62
2018-10-21T01:22:53.760Z,88.19
2018-10-21T01:25:22.625Z,87.61
2018-10-21T01:27:51.559Z,87.67
2018-10-21T01:30:20.446Z,87.64
2018-10-21T01:32:49.381Z,87.42
2018-10-21T01:35:18.311Z,87.58
2018-10-21T01:37:47.245Z,87.22
2018-10-21T01:40:34.467Z,86.35
2018-10-21T01:43:03.701Z,87.39
2018-10-21T01:45:32.628Z,87.53
2018-10-21T01:48:02.792Z,87.03
2018-10-21T01:50:31.812Z,87.35
2018-10-21T01:53:01.812Z,87.24
2018-10-21T01:55:30.683Z,86.94
2018-10-21T01:57:59.926Z,87.54
2018-10-21T02:00:29.411Z,86.80
2018-10-21T02:02:58.828Z,87.25
2018-10-21T02:05:27.902Z,87.16
2018-10-21T02:07:56.898Z,86.79
2018-10-21T02:10:25.883Z,87.96
2018-10-21T02:12:54.864Z,88.18
2018-10-21T02:15:23.882Z,88.87
2018-10-21T02:17:52.759Z,87.74
2018-10-21T02:20:22.359Z,87.26
2018-10-21T02:22:51.489Z,86.93
2018-10-21T02:25:20.479Z,86.84
2018-10-21T02:27:50.083Z,86.53
2018-10-21T02:30:20.213Z,87.26
2018-10-21T02:32:49.852Z,87.87
2018-10-21T02:35:19.222Z,88.13
2018-10-21T02:37:48.499Z,88.05
2018-10-21T02:41:44.514Z,88.40
2018-10-21T02:44:20.962Z,89.71
2018-10-21T02:46:51.178Z,88.09
2018-10-21T02:49:20.550Z,89.56
2018-10-21T02:51:54.939Z,89.86
2018-10-21T02:54:30.027Z,88.94
2018-10-21T02:56:59.049Z,88.36
2018-10-21T02:59:28.309Z,87.81
2018-10-21T03:01:57.179Z,88.26
2018-10-21T03:04:26.157Z,89.07
2018-10-21T03:06:55.030Z,89.18
2018-10-21T03:09:23.950Z,88.11
2018-10-21T03:11:52.855Z,89.25
2018-10-21T03:14:21.773Z,89.65
2018-10-21T03:16:50.675Z,89.79
2018-10-21T03:19:19.564Z,89.78
2018-10-21T03:21:48.462Z,89.26
2018-10-21T03:24:17.650Z,89.55
2018-10-21T03:26:47.332Z,89.92
2018-10-21T03:29:16.211Z,89.79
2018-10-21T03:31:45.139Z,88.85
2018-10-21T03:34:13.993Z,90.69
2018-10-21T03:36:42.885Z,89.71
2018-10-21T03:39:12.036Z,90.15
2018-10-21T03:41:41.526Z,90.00
2018-10-21T03:44:10.419Z,88.85
2018-10-21T03:46:39.318Z,89.11
2018-10-21T03:49:08.230Z,89.44
2018-10-21T03:51:37.113Z,88.80
2018-10-21T03:54:06.020Z,88.54
2018-10-21T03:56:34.986Z,88.82
2018-10-21T03:59:03.838Z,89.20
2018-10-21T04:01:32.716Z,88.08
2018-10-21T04:04:01.665Z,89.68
2018-10-21T04:06:30.558Z,88.80
2018-10-21T04:08:59.447Z,88.12
2018-10-21T04:11:28.386Z,89.19
2018-10-21T04:13:57.246Z,88.77
2018-10-21T04:16:26.177Z,88.98
2018-10-21T04:18:55.050Z,88.95
2018-10-21T04:21:24.042Z,88.56
2018-10-21T04:23:52.942Z,89.13
2018-10-21T04:26:21.812Z,88.04
2018-10-21T04:28:50.704Z,87.57
2018-10-21T04:31:19.619Z,87.39
2018-10-21T04:33:48.527Z,88.39
2018-10-21T04:36:20.533Z,87.27
2018-10-21T04:39:59.468Z,87.95
2018-10-21T04:42:28.365Z,88.19
2018-10-21T04:44:57.363Z,88.38
2018-10-21T04:47:26.235Z,87.22
2018-10-21T04:49:55.122Z,86.99
2018-10-21T04:52:24.168Z,88.15
2018-10-21T04:54:53.050Z,88.30
2018-10-21T04:57:21.946Z,87.58
2018-10-21T04:59:50.794Z,87.51
2018-10-21T05:02:19.679Z,86.92
2018-10-21T05:04:48.572Z,86.96
2018-10-21T05:07:17.419Z,86.90
2018-10-21T05:09:46.319Z,87.13
2018-10-21T05:12:15.184Z,86.68
2018-10-21T05:14:44.109Z,87.09
2018-10-21T05:17:13.023Z,86.29
2018-10-21T05:19:41.889Z,86.94
2018-10-21T05:22:10.935Z,87.72
2018-10-21T05:24:39.802Z,86.25
2018-10-21T05:27:09.111Z,87.12
2018-10-21T05:29:37.946Z,87.38
2018-10-21T05:32:06.795Z,87.53
2018-10-21T05:34:35.695Z,86.98
2018-10-21T05:37:04.898Z,87.69
2018-10-21T05:39:33.838Z,86.91
2018-10-21T05:42:02.785Z,87.24
2018-10-21T05:44:31.635Z,87.66
2018-10-21T05:47:00.605Z,87.42
2018-10-21T05:49:29.472Z,86.83
2018-10-21T05:51:58.331Z,86.87
2018-10-21T05:54:27.534Z,88.15
2018-10-21T05:56:56.408Z,87.81
2018-10-21T05:59:25.286Z,87.89
2018-10-21T06:01:54.195Z,87.85
2018-10-21T06:04:23.035Z,88.02
2018-10-21T06:06:52.655Z,89.16
2018-10-21T06:09:21.654Z,88.59
2018-10-21T06:11:50.505Z,89.12
2018-10-21T06:14:19.544Z,89.60
2018-10-21T06:16:52.726Z,89.89
2018-10-21T06:19:32.063Z,89.44
2018-10-21T06:22:00.970Z,89.97
2018-10-21T06:24:29.835Z,89.98
2018-10-21T06:26:58.700Z,89.91
2018-10-21T06:29:27.901Z,89.86
2018-10-21T06:31:56.766Z,90.52
2018-10-21T06:34:25.711Z,90.13
2018-10-21T06:36:54.714Z,89.06
2018-10-21T06:39:23.493Z,89.41
2018-10-21T06:41:52.668Z,88.71
2018-10-21T06:44:21.580Z,88.78
2018-10-21T06:46:50.458Z,88.58
2018-10-21T06:49:19.561Z,89.47
2018-10-21T06:51:48.420Z,88.65
2018-10-21T06:54:17.319Z,89.10
2018-10-21T06:56:46.343Z,90.19
2018-10-21T06:59:15.825Z,89.74
2018-10-21T07:01:44.809Z,88.92
2018-10-21T07:04:13.758Z,90.69
2018-10-21T07:06:42.626Z,91.06
2018-10-21T07:09:11.533Z,91.86
2018-10-21T07:11:40.416Z,89.57
2018-10-21T07:14:09.301Z,90.46
2018-10-21T07:16:38.399Z,92.27
2018-10-21T07:19:07.101Z,92.56
2018-10-21T07:21:35.995Z,92.40
2018-10-21T07:24:05.410Z,92.44
2018-10-21T07:26:34.328Z,92.64
2018-10-21T07:29:03.234Z,92.63
2018-10-21T07:31:32.159Z,91.31
2018-10-21T07:34:01.088Z,91.75
2018-10-21T07:36:30.029Z,90.83
2018-10-21T07:38:58.864Z,92.38
2018-10-21T07:41:27.744Z,92.29
2018-10-21T07:43:56.674Z,92.61
2018-10-21T07:46:25.561Z,92.10
2018-10-21T07:48:54.429Z,92.08
2018-10-21T07:51:23.373Z,93.44
2018-10-21T07:53:52.275Z,92.28
2018-10-21T07:56:21.203Z,91.76
2018-10-21T07:58:50.101Z,92.49
2018-10-21T08:01:19.014Z,89.92
2018-10-21T08:03:47.925Z,91.05
2018-10-21T08:06:38.624Z,91.03
2018-10-21T08:09:08.627Z,91.48
2018-10-21T08:11:37.688Z,91.88
2018-10-21T08:14:06.586Z,91.98
2018-10-21T08:16:35.526Z,92.29
2018-10-21T08:19:04.415Z,93.43
2018-10-21T08:21:33.288Z,94.40
2018-10-21T08:24:02.302Z,93.90
2018-10-21T08:26:31.188Z,95.05
2018-10-21T08:29:00.080Z,96.23
2018-10-21T08:31:28.990Z,96.78
2018-10-21T08:33:57.895Z,95.92
2018-10-21T08:36:26.803Z,94.53
2018-10-21T08:38:55.714Z,96.01
2018-10-21T08:41:24.602Z,96.74
2018-10-21T08:43:53.552Z,96.92
2018-10-21T08:46:22.602Z,96.20
2018-10-21T08:48:51.495Z,96.21
2018-10-21T08:51:20.404Z,97.19
2018-10-21T08:53:49.313Z,96.12
2018-10-21T08:56:18.278Z,95.01
2018-10-21T08:58:47.161Z,95.39
2018-10-21T09:01:16.116Z,94.83
2018-10-21T09:03:44.938Z,96.41
2018-10-21T09:06:14.172Z,94.95
2018-10-21T09:08:43.034Z,96.45
2018-10-21T09:11:11.936Z,96.34
2018-10-21T09:13:40.843Z,96.01
2018-10-21T09:16:09.828Z,96.34
2018-10-21T09:18:38.634Z,96.09
2018-10-21T09:21:07.552Z,96.67
2018-10-21T09:23:36.436Z,94.46
2018-10-21T09:26:05.394Z,94.18
2018-10-21T09:28:34.300Z,94.64
2018-10-21T09:31:03.287Z,94.87
2018-10-21T09:33:32.154Z,94.03
2018-10-21T09:36:01.117Z,94.25
2018-10-21T09:38:30.043Z,94.09
2018-10-21T09:40:58.952Z,93.54
2018-10-21T09:43:27.912Z,93.69
2018-10-21T09:45:56.828Z,94.28
2018-10-21T09:48:25.764Z,94.37
2018-10-21T09:50:54.674Z,93.92
2018-10-21T09:53:23.759Z,93.69
2018-10-21T09:55:52.643Z,94.03
2018-10-21T09:58:21.613Z,93.30
2018-10-21T10:00:55.980Z,92.77
2018-10-21T10:03:24.870Z,93.43
2018-10-21T10:05:53.747Z,93.00
2018-10-21T10:08:22.663Z,92.44
2018-10-21T10:10:51.562Z,92.80
2018-10-21T10:13:20.563Z,93.05
2018-10-21T10:15:49.472Z,92.93
2018-10-21T10:18:18.379Z,92.03
2018-10-21T10:20:47.320Z,92.69
2018-10-21T10:23:16.221Z,92.42
2018-10-21T10:25:45.127Z,91.50
2018-10-21T10:28:14.169Z,92.01
2018-10-21T10:30:43.004Z,91.16
2018-10-21T10:33:12.137Z,91.34
2018-10-21T10:35:42.018Z,91.36
2018-10-21T10:38:10.920Z,91.66
2018-10-21T10:40:39.856Z,91.16
2018-10-21T10:43:08.971Z,90.89
2018-10-21T10:45:37.811Z,90.51
2018-10-21T10:48:06.743Z,90.27
2018-10-21T10:50:35.673Z,90.16
2018-10-21T10:53:04.749Z,90.05
2018-10-21T10:55:52.118Z,89.83
2018-10-21T10:58:21.154Z,89.26
2018-10-21T11:00:50.074Z,88.52
2018-10-21T11:03:19.023Z,88.00
2018-10-21T11:05:48.040Z,87.67
2018-10-21T11:08:16.831Z,87.18
2018-10-21T11:10:45.794Z,87.57
2018-10-21T11:13:14.839Z,87.39
2018-10-21T11:15:43.734Z,86.62
2018-10-21T11:18:12.629Z,86.81
2018-10-21T11:20:41.533Z,86.90
2018-10-21T11:23:10.437Z,86.89
2018-10-21T11:25:39.344Z,86.18
2018-10-21T11:28:08.307Z,86.38
2018-10-21T11:30:37.182Z,86.04
2018-10-21T11:33:06.492Z,85.97
2018-10-21T11:35:35.378Z,85.84
2018-10-21T11:38:05.167Z,84.79
2018-10-21T11:40:34.032Z,84.33
2018-10-21T11:43:03.074Z,84.52
2018-10-21T11:45:32.049Z,84.61
2018-10-21T11:48:00.996Z,85.09
2018-10-21T11:50:29.884Z,84.60
2018-10-21T11:52:58.769Z,83.98
2018-10-21T11:55:31.854Z,83.38
2018-10-21T11:58:00.811Z,83.70
2018-10-21T12:00:29.720Z,83.54
2018-10-21T12:02:58.639Z,84.40
2018-10-21T12:05:27.619Z,83.18
2018-10-21T12:07:56.528Z,82.83
2018-10-21T12:10:25.480Z,83.05
2018-10-21T12:12:54.736Z,82.76
2018-10-21T12:15:23.687Z,82.64
2018-10-21T12:17:52.627Z,82.12
2018-10-21T12:20:21.533Z,81.51
2018-10-21T12:22:50.540Z,80.85
2018-10-21T12:25:20.346Z,81.53
2018-10-21T12:27:49.118Z,80.75
2018-10-21T12:30:18.032Z,81.07
2018-10-21T12:32:46.982Z,81.02
2018-10-21T12:35:15.959Z,81.33
2018-10-21T12:37:44.802Z,80.87
2018-10-21T12:40:13.795Z,80.84
2018-10-21T12:42:42.645Z,80.83
2018-10-21T12:45:12.165Z,81.11
2018-10-21T12:47:41.072Z,80.66
2018-10-21T12:50:10.049Z,80.89
2018-10-21T12:52:38.915Z,80.54
2018-10-21T12:55:09.025Z,80.41
2018-10-21T12:57:37.817Z,79.83
2018-10-21T13:00:07.710Z,80.04
2018-10-21T13:02:36.766Z,78.66
2018-10-21T13:05:06.455Z,77.39
2018-10-21T13:07:35.344Z,76.62
2018-10-21T13:10:04.254Z,78.96
2018-10-21T13:12:33.252Z,77.58
2018-10-21T13:15:02.232Z,77.33
2018-10-21T13:17:31.197Z,77.50
2018-10-21T13:20:00.106Z,76.60
2018-10-21T13:22:28.989Z,76.14
2018-10-21T13:24:57.916Z,76.82
2018-10-21T13:27:26.811Z,76.25
2018-10-21T13:29:55.737Z,76.30
2018-10-21T13:32:24.619Z,75.40
2018-10-21T13:34:53.506Z,76.65
2018-10-21T13:37:22.402Z,74.34
2018-10-21T13:39:51.784Z,74.30
2018-10-21T13:42:20.700Z,74.41
2018-10-21T13:44:49.604Z,74.74
2018-10-21T13:47:18.496Z,74.72
2018-10-21T13:49:47.361Z,74.07
2018-10-21T13:52:16.678Z,72.78
2018-10-21T13:54:45.553Z,72.32
2018-10-21T13:57:14.430Z,71.64
2018-10-21T13:59:43.352Z,72.81
2018-10-21T14:02:12.242Z,73.16
2018-10-21T14:04:41.169Z,71.81
2018-10-21T14:07:10.146Z,72.19
2018-10-21T14:09:39.026Z,72.40
2018-10-21T14:12:07.919Z,72.49
2018-10-21T14:14:36.808Z,72.03
2018-10-21T14:17:05.762Z,71.88
2018-10-21T14:19:34.675Z,71.28
2018-10-21T14:22:03.593Z,71.57
2018-10-21T14:24:32.772Z,72.03
2018-10-21T14:27:01.613Z,72.73
2018-10-21T14:29:30.576Z,71.73
2018-10-21T14:31:59.510Z,70.80
2018-10-21T14:34:28.362Z,70.42
2018-10-21T14:36:57.490Z,71.00
2018-10-21T14:39:26.400Z,70.51
2018-10-21T14:41:55.362Z,71.17
2018-10-21T14:44:24.282Z,70.21
2018-10-21T14:46:53.231Z,70.16
2018-10-21T14:49:22.172Z,70.46
2018-10-21T14:51:51.059Z,70.46
2018-10-21T14:54:20.039Z,71.06
2018-10-21T14:56:49.025Z,71.09
2018-10-21T14:59:17.953Z,70.93
2018-10-21T15:01:46.923Z,69.73
2018-10-21T15:04:15.925Z,71.14
2018-10-21T15:06:44.858Z,70.51
2018-10-21T15:09:14.553Z,70.50
2018-10-21T15:11:43.591Z,70.55
2018-10-21T15:14:12.835Z,70.55
2018-10-21T15:16:41.761Z,71.30
2018-10-21T15:19:10.705Z,71.76
2018-10-21T15:21:39.649Z,70.88
2018-10-21T15:24:08.555Z,70.55
2018-10-21T15:26:37.523Z,70.13
2018-10-21T15:29:06.551Z,70.23
2018-10-21T15:31:35.598Z,69.70
2018-10-21T15:34:04.619Z,70.12
2018-10-21T15:36:33.449Z,69.60
2018-10-21T15:39:02.402Z,69.80
2018-10-21T15:41:31.304Z,71.11
2018-10-21T15:44:00.245Z,71.28
2018-10-21T15:46:29.205Z,71.36
2018-10-21T15:48:58.245Z,71.15
2018-10-21T15:51:27.027Z,71.69
2018-10-21T15:53:55.949Z,71.69
2018-10-21T15:56:24.849Z,71.97
2018-10-21T15:58:53.786Z,72.35
2018-10-21T16:01:22.689Z,72.56
2018-10-21T16:03:51.653Z,72.65
2018-10-21T16:06:20.578Z,72.33
2018-10-21T16:08:49.524Z,72.62
2018-10-21T16:11:18.385Z,72.75
2018-10-21T16:13:47.385Z,73.12
2018-10-21T16:16:16.339Z,73.35
2018-10-21T16:18:45.182Z,72.83
2018-10-21T16:21:14.157Z,72.77
2018-10-21T16:23:43.184Z,72.61
2018-10-21T16:26:12.089Z,73.13
2018-10-21T16:28:40.976Z,72.41
2018-10-21T16:31:09.915Z,73.13
2018-10-21T16:33:38.875Z,72.67
2018-10-21T16:36:07.810Z,72.81
2018-10-21T16:38:36.715Z,72.93
2018-10-21T16:41:06.073Z,72.85
2018-10-21T16:43:35.001Z,73.27
2018-10-21T16:46:03.909Z,73.50
2018-10-21T16:48:32.824Z,73.60
2018-10-21T16:51:02.347Z,73.30
2018-10-21T16:53:31.384Z,73.30
2018-10-21T16:56:00.199Z,73.47
2018-10-21T16:58:29.681Z,73.69
2018-10-21T17:00:58.721Z,73.53
2018-10-21T17:03:27.580Z,73.44
2018-10-21T17:05:56.525Z,74.00
2018-10-21T17:08:25.717Z,74.29
2018-10-21T17:10:55.736Z,74.00
2018-10-21T17:13:24.571Z,74.67
2018-10-21T17:15:53.512Z,74.48
2018-10-21T17:18:22.415Z,74.80
2018-10-21T17:20:51.355Z,74.30
2018-10-21T17:23:20.303Z,74.49
2018-10-21T17:25:49.208Z,74.44
2018-10-21T17:28:18.168Z,74.60
2018-10-21T17:30:47.144Z,75.23
2018-10-21T17:33:16.318Z,74.91
2018-10-21T17:35:45.214Z,74.82
2018-10-21T17:38:14.177Z,75.25
2018-10-21T17:40:43.198Z,74.83
2018-10-21T17:43:12.098Z,75.25
2018-10-21T17:45:40.947Z,75.09
2018-10-21T17:48:09.905Z,75.13
2018-10-21T17:50:38.796Z,74.85
2018-10-21T17:53:07.713Z,74.93
2018-10-21T17:55:36.671Z,75.40
2018-10-21T17:58:05.653Z,75.26
2018-10-21T18:00:34.565Z,75.61
2018-10-21T18:03:03.481Z,76.31
2018-10-21T18:05:32.454Z,74.93
2018-10-21T18:08:01.348Z,75.30
2018-10-21T18:10:30.251Z,75.40
2018-10-21T18:12:59.231Z,75.34
2018-10-21T18:15:28.099Z,75.02
2018-10-21T18:17:57.063Z,75.30
2018-10-21T18:20:26.057Z,75.11
2018-10-21T18:22:54.922Z,75.34
2018-10-21T18:25:23.857Z,75.24
2018-10-21T18:27:52.769Z,74.86
2018-10-21T18:30:21.687Z,75.32
2018-10-21T18:32:50.601Z,75.30
2018-10-21T18:35:19.484Z,75.95
2018-10-21T18:37:48.387Z,76.42
2018-10-21T18:40:17.429Z,75.65
2018-10-21T18:42:46.349Z,75.10
2018-10-21T18:45:15.754Z,75.39
2018-10-21T18:47:45.058Z,75.43
2018-10-21T18:50:15.134Z,75.17
2018-10-21T18:52:44.092Z,74.78
2018-10-21T18:55:13.620Z,74.58
2018-10-21T18:57:42.484Z,74.19
2018-10-21T19:00:13.887Z,74.45
2018-10-21T19:02:43.041Z,73.82
2018-10-21T19:05:12.552Z,73.78
2018-10-21T19:07:41.448Z,74.28
2018-10-21T19:10:12.362Z,73.91
2018-10-21T19:12:41.414Z,73.79
2018-10-21T19:15:11.637Z,73.78
2018-10-21T19:17:40.985Z,73.56
2018-10-21T19:20:12.385Z,73.64
2018-10-21T19:22:41.391Z,73.68
2018-10-21T19:25:11.592Z,73.50
2018-10-21T19:27:40.775Z,73.30
2018-10-21T19:30:10.689Z,74.17
2018-10-21T19:32:39.799Z,73.76
2018-10-21T19:35:09.663Z,74.27
2018-10-21T19:37:38.692Z,73.54
2018-10-21T19:40:08.591Z,73.62
2018-10-21T19:42:37.540Z,73.64
2018-10-21T19:45:07.384Z,73.53
2018-10-21T19:47:36.270Z,73.97
2018-10-21T19:50:05.895Z,74.13
2018-10-21T19:52:34.809Z,74.73
2018-10-21T19:55:03.776Z,74.16
2018-10-21T19:57:32.696Z,74.00
2018-10-21T20:00:01.591Z,74.06
2018-10-21T20:02:30.530Z,73.84
2018-10-21T20:04:59.466Z,74.06
2018-10-21T20:07:28.346Z,73.73
2018-10-21T20:09:57.333Z,73.66
2018-10-21T20:12:26.207Z,74.04
2018-10-21T20:14:55.116Z,74.73
2018-10-21T20:17:24.047Z,75.25
2018-10-21T20:19:52.978Z,74.38
2018-10-21T20:22:21.881Z,74.79
2018-10-21T20:24:50.870Z,74.34
2018-10-21T20:27:19.824Z,74.49
2018-10-21T20:29:48.733Z,73.83
2018-10-21T20:32:17.613Z,74.91
2018-10-21T20:34:46.619Z,75.26
2018-10-21T20:37:15.557Z,75.30
2018-10-21T20:39:44.486Z,75.50
2018-10-21T20:42:13.503Z,75.55
2018-10-21T20:44:42.353Z,75.32
2018-10-21T20:47:11.290Z,76.11
2018-10-21T20:49:40.688Z,75.98
2018-10-21T20:52:09.778Z,75.55
2018-10-21T20:54:43.934Z,75.20
2018-10-21T20:57:12.830Z,75.59
2018-10-21T20:59:42.602Z,75.58
2018-10-21T21:02:12.625Z,75.49
2018-10-21T21:04:41.751Z,75.66
2018-10-21T21:07:11.051Z,75.77
2018-10-21T21:09:40.633Z,75.46
2018-10-21T21:12:09.639Z,75.60
2018-10-21T21:14:38.451Z,75.88
2018-10-21T21:17:07.362Z,75.86
2018-10-21T21:19:36.347Z,76.37
2018-10-21T21:22:05.365Z,76.46
2018-10-21T21:24:34.221Z,76.37
2018-10-21T21:27:03.160Z,76.60
2018-10-21T21:29:32.081Z,76.42
2018-10-21T21:32:00.990Z,77.27
2018-10-21T21:34:29.932Z,76.54
2018-10-21T21:36:58.842Z,76.61
2018-10-21T21:39:27.757Z,76.71
2018-10-21T21:41:56.715Z,76.70
2018-10-21T21:44:25.643Z,76.78
2018-10-21T21:46:54.560Z,76.68
2018-10-21T21:49:23.469Z,77.09
2018-10-21T21:51:52.402Z,76.70
2018-10-21T21:54:21.304Z,77.19
2018-10-21T21:56:50.255Z,76.90
2018-10-21T21:59:19.398Z,77.26
2018-10-21T22:01:48.489Z,77.05
2018-10-21T22:04:17.559Z,77.44
2018-10-21T22:06:46.380Z,77.59
2018-10-21T22:09:15.287Z,77.46
2018-10-21T22:11:44.194Z,77.60
2018-10-21T22:14:13.207Z,77.27
2018-10-21T22:16:42.108Z,77.15
2018-10-21T22:19:11.009Z,77.02
2018-10-21T22:21:39.963Z,77.07
2018-10-21T22:24:11.190Z,77.61
2018-10-21T22:26:42.876Z,77.77
2018-10-21T22:29:16.322Z,77.79
2018-10-21T22:31:45.323Z,78.33
2018-10-21T22:34:14.349Z,78.06
2018-10-21T22:36:43.217Z,78.23
2018-10-21T22:39:12.137Z,77.80
2018-10-21T22:41:41.041Z,77.70
2018-10-21T22:44:09.949Z,77.68
2018-10-21T22:46:38.922Z,77.97
2018-10-21T22:49:08.038Z,78.13
2018-10-21T22:51:36.957Z,77.60
2018-10-21T22:54:05.922Z,77.82
2018-10-21T22:56:34.815Z,77.39
2018-10-21T22:59:03.762Z,77.35
2018-10-21T23:01:32.687Z,77.06
2018-10-21T23:04:01.628Z,77.26
2018-10-21T23:06:30.504Z,76.55
2018-10-21T23:08:59.432Z,76.69
2018-10-21T23:11:28.342Z,76.06
2018-10-21T23:13:57.213Z,76.29
2018-10-21T23:16:26.110Z,76.20
2018-10-21T23:19:45.516Z,75.99
2018-10-21T23:22:14.527Z,75.81
2018-10-21T23:24:43.397Z,75.86
2018-10-21T23:27:12.871Z,75.55
2018-10-21T23:29:42.542Z,75.54
2018-10-21T23:32:11.447Z,76.30
2018-10-21T23:34:40.318Z,76.54
2018-10-21T23:37:09.317Z,75.93
2018-10-21T23:39:38.223Z,75.54
2018-10-21T23:42:07.195Z,75.70
2018-10-21T23:44:36.138Z,75.70
2018-10-21T23:47:05.179Z,76.00
2018-10-21T23:49:34.124Z,76.19
2018-10-21T23:52:03.541Z,76.69
2018-10-21T23:54:32.507Z,76.77
2018-10-21T23:57:04.275Z,76.32
2018-10-21T23:59:33.545Z,76.61
